Time;durP1;ratioP1;P1;durP2;ratioP2;P2;SDS_P1;SDS_P2;PMS_P1;PMS_P2;Temp;Humidity;BMP_temperature;BMP_pressure;BME280_temperature;BME280_humidity;BME280_pressure;Samples;Min_cycle;Max_cycle;Signal;HPM_P1;HPM_P2
2022/12/04 00:01:47;;;;;;;126.13;61.75;;;0.50;99.90;;;;;;4991896;28;20049;-73
2022/12/04 00:04:13;;;;;;;123.38;58.47;;;0.50;99.90;;;;;;4990537;28;20503;-72
2022/12/04 00:06:39;;;;;;;118.50;57.97;;;0.50;99.90;;;;;;4991156;28;20526;-73
2022/12/04 00:09:07;;;;;;;127.45;62.40;;;0.50;99.90;;;;;;4990874;28;20045;-73
2022/12/04 00:11:33;;;;;;;138.50;63.03;;;0.50;99.90;;;;;;4981908;28;20096;-72
2022/12/04 00:13:59;;;;;;;118.35;56.20;;;0.50;99.90;;;;;;4990853;28;20085;-73
2022/12/04 00:16:30;;;;;;;118.88;58.10;;;0.50;99.90;;;;;;5008168;28;20644;-73
2022/12/04 00:18:56;;;;;;;119.90;57.55;;;0.50;99.90;;;;;;5008122;28;20045;-73
2022/12/04 00:21:24;;;;;;;120.53;57.70;;;0.50;99.90;;;;;;5007528;28;20125;-73
2022/12/04 00:23:50;;;;;;;131.32;61.75;;;0.50;99.90;;;;;;4990189;28;20038;-73
2022/12/04 00:26:22;;;;;;;113.65;55.83;;;0.50;99.90;;;;;;5002310;28;20041;-73
2022/12/04 00:28:49;;;;;;;115.95;55.92;;;0.50;99.90;;;;;;4987955;28;20045;-72
2022/12/04 00:31:17;;;;;;;129.75;57.20;;;0.50;99.90;;;;;;4990798;28;20111;-73
2022/12/04 00:33:43;;;;;;;114.40;55.20;;;0.50;99.90;;;;;;5005533;28;20069;-73
2022/12/04 00:36:11;;;;;;;120.13;59.28;;;0.40;99.90;;;;;;4990752;28;20077;-72
2022/12/04 00:38:38;;;;;;;132.80;63.25;;;0.50;99.90;;;;;;4987596;28;20447;-72
2022/12/04 00:41:07;;;;;;;129.10;59.20;;;0.40;99.90;;;;;;5008585;28;20054;-73
2022/12/04 00:43:36;;;;;;;128.77;58.67;;;0.40;99.90;;;;;;4989937;28;20428;-73
2022/12/04 00:46:01;;;;;;;113.05;57.33;;;0.40;99.90;;;;;;4985111;28;20081;-73
2022/12/04 00:48:27;;;;;;;108.25;58.67;;;0.40;99.90;;;;;;4986726;28;20119;-73
2022/12/04 00:50:54;;;;;;;126.88;60.08;;;0.40;99.90;;;;;;4989810;28;20049;-73
2022/12/04 00:53:20;;;;;;;42.78;16.50;;;0.40;99.90;;;;;;4990768;28;20468;-72
2022/12/04 00:55:46;;;;;;;122.78;59.88;;;0.40;99.90;;;;;;4989480;28;20050;-73
2022/12/04 00:58:12;;;;;;;56.00;23.08;;;0.40;99.90;;;;;;4990163;28;20588;-73
2022/12/04 01:00:40;;;;;;;106.75;55.88;;;0.40;99.90;;;;;;4989723;28;20081;-72
2022/12/04 01:03:07;;;;;;;125.57;58.70;;;0.40;99.90;;;;;;4993186;28;20049;-72
2022/12/04 01:05:44;;;;;;;115.82;59.05;;;0.40;99.90;;;;;;4986185;28;20795;-73
2022/12/04 01:08:11;;;;;;;117.35;59.53;;;0.40;99.90;;;;;;4990250;28;20080;-73
2022/12/04 01:10:39;;;;;;;125.90;61.75;;;0.40;99.90;;;;;;4977316;28;20053;-73
2022/12/04 01:13:04;;;;;;;111.53;58.83;;;0.40;99.90;;;;;;4988175;28;20100;-72
2022/12/04 01:15:30;;;;;;;114.70;57.65;;;0.40;99.90;;;;;;4989886;28;20037;-72
2022/12/04 01:17:56;;;;;;;124.90;60.03;;;0.40;99.90;;;;;;4988031;28;20053;-73
2022/12/04 01:20:22;;;;;;;111.13;59.85;;;0.40;99.90;;;;;;5005157;28;20052;-73
2022/12/04 01:22:47;;;;;;;125.22;65.25;;;0.40;99.90;;;;;;4990306;28;20046;-73
2022/12/04 01:25:13;;;;;;;117.88;59.72;;;0.40;99.90;;;;;;4990079;28;20058;-73
2022/12/04 01:27:39;;;;;;;120.97;62.83;;;0.40;99.90;;;;;;4986471;28;20050;-73
2022/12/04 01:30:05;;;;;;;136.32;62.35;;;0.40;99.90;;;;;;4995754;28;20050;-72
2022/12/04 01:32:31;;;;;;;131.43;64.00;;;0.40;99.90;;;;;;4992908;28;20046;-73
2022/12/04 01:34:56;;;;;;;129.75;61.28;;;0.40;99.90;;;;;;4990152;28;20556;-72
2022/12/04 01:37:22;;;;;;;134.68;61.83;;;0.40;99.90;;;;;;4986541;28;20054;-73
2022/12/04 01:39:48;;;;;;;52.58;19.65;;;0.40;99.90;;;;;;4990389;28;20407;-73
2022/12/04 01:42:14;;;;;;;60.67;23.70;;;0.40;99.90;;;;;;4999990;28;20057;-73
2022/12/04 01:45:04;;;;;;;126.95;60.75;;;0.30;99.90;;;;;;4991091;28;20138;-73
2022/12/04 01:47:30;;;;;;;127.55;59.90;;;0.30;99.90;;;;;;5007637;28;20084;-73
2022/12/04 01:49:57;;;;;;;131.20;62.17;;;0.30;99.90;;;;;;4990050;28;20073;-72
2022/12/04 01:52:25;;;;;;;129.60;60.55;;;0.40;99.90;;;;;;4990276;28;20046;-73
2022/12/04 01:54:55;;;;;;;125.90;63.07;;;0.40;99.90;;;;;;4993793;28;20069;-72
2022/12/04 01:57:23;;;;;;;120.45;59.67;;;0.40;99.90;;;;;;4994107;28;20073;-73
2022/12/04 02:00:02;;;;;;;119.63;59.08;;;0.40;99.90;;;;;;4993535;28;20042;-73
2022/12/04 02:02:34;;;;;;;127.45;64.93;;;0.40;99.90;;;;;;5010158;28;20048;-73
2022/12/04 02:05:02;;;;;;;127.50;61.22;;;0.40;99.90;;;;;;4994661;28;20388;-72
2022/12/04 02:07:29;;;;;;;121.45;60.47;;;0.40;99.90;;;;;;5009528;28;20096;-73
2022/12/04 02:09:55;;;;;;;141.38;67.85;;;0.30;99.90;;;;;;4988939;28;20557;-73
2022/12/04 02:12:48;;;;;;;133.05;64.90;;;0.30;99.90;;;;;;4992943;28;20053;-73
2022/12/04 02:15:37;;;;;;;125.32;61.35;;;0.40;99.90;;;;;;5010007;28;20104;-73
2022/12/04 02:18:15;;;;;;;;;;;0.30;99.90;;;;;;4994338;28;20085;-73
2022/12/04 02:21:08;;;;;;;38.30;17.85;;;0.30;99.90;;;;;;4991724;28;20012;-72
2022/12/04 02:23:53;;;;;;;122.00;62.92;;;0.30;99.90;;;;;;5001027;28;20057;-73
2022/12/04 02:26:36;;;;;;;136.85;63.53;;;0.20;99.90;;;;;;4987591;28;20039;-73
2022/12/04 02:29:23;;;;;;;63.15;25.77;;;0.30;99.90;;;;;;4989152;28;20125;-73
2022/12/04 02:32:02;;;;;;;122.95;64.57;;;0.30;99.90;;;;;;5009821;28;20133;-73
2022/12/04 02:34:40;;;;;;;138.90;66.05;;;0.30;99.90;;;;;;4992377;28;20085;-72
2022/12/04 02:37:18;;;;;;;126.60;67.20;;;0.30;99.90;;;;;;4983293;28;20054;-72
2022/12/04 02:39:55;;;;;;;130.77;68.13;;;0.20;99.90;;;;;;4992006;28;20164;-73
2022/12/04 02:42:37;;;;;;;135.00;69.15;;;0.20;99.90;;;;;;4991658;28;20038;-73
2022/12/04 02:45:27;;;;;;;127.50;63.55;;;0.20;99.90;;;;;;4988647;28;20081;-73
2022/12/04 02:47:54;;;;;;;130.60;64.22;;;0.20;99.90;;;;;;4991001;28;20054;-73
2022/12/04 02:50:22;;;;;;;133.55;67.25;;;0.20;99.90;;;;;;4989101;28;20037;-73
2022/12/04 02:53:00;;;;;;;142.00;68.97;;;0.20;99.90;;;;;;5008974;28;20077;-72
2022/12/04 02:55:32;;;;;;;148.48;67.70;;;0.20;99.90;;;;;;5005301;28;20446;-73
2022/12/04 02:58:03;;;;;;;139.02;66.85;;;0.20;99.90;;;;;;4990989;28;20049;-73
2022/12/04 03:00:31;;;;;;;66.65;24.52;;;0.20;99.90;;;;;;5003121;28;20049;-73
2022/12/04 03:03:06;;;;;;;130.05;61.35;;;0.20;99.90;;;;;;5009543;28;20041;-73
2022/12/04 03:05:59;;;;;;;140.38;66.82;;;0.20;99.90;;;;;;5009176;28;20065;-73
2022/12/04 03:08:35;;;;;;;61.90;23.13;;;0.20;99.90;;;;;;4991989;28;20046;-73
2022/12/04 03:11:01;;;;;;;148.07;72.18;;;0.10;99.90;;;;;;4991946;28;20045;-73
2022/12/04 03:13:47;;;;;;;137.50;67.72;;;0.10;99.90;;;;;;4992102;28;20058;-73
2022/12/04 03:16:18;;;;;;;127.97;68.30;;;0.10;99.90;;;;;;4984363;28;20053;-73
2022/12/04 03:19:00;;;;;;;135.07;68.05;;;0.10;99.90;;;;;;4991537;28;20818;-73
2022/12/04 03:21:30;;;;;;;139.98;69.40;;;0.10;99.90;;;;;;4986380;28;20046;-73
2022/12/04 03:24:05;;;;;;;49.50;20.45;;;0.10;99.90;;;;;;4991442;28;20100;-73
2022/12/04 03:26:44;;;;;;;142.45;68.05;;;0.10;99.90;;;;;;4989756;28;20096;-73
2022/12/04 03:29:16;;;;;;;136.63;71.10;;;0.10;99.90;;;;;;4995414;28;20100;-73
2022/12/04 03:31:56;;;;;;;148.27;69.63;;;0.10;99.90;;;;;;4990373;28;20096;-74
2022/12/04 03:34:31;;;;;;;142.23;70.28;;;0.10;99.90;;;;;;5009292;28;20069;-73
2022/12/04 03:37:04;;;;;;;145.27;72.20;;;0.10;99.90;;;;;;5006734;28;20046;-73
2022/12/04 03:39:42;;;;;;;147.52;72.25;;;0.10;99.90;;;;;;4994287;28;20112;-73
2022/12/04 03:42:16;;;;;;;146.02;72.13;;;0.10;99.90;;;;;;5008965;28;20041;-73
2022/12/04 03:45:05;;;;;;;139.52;69.43;;;0.10;99.90;;;;;;4991263;28;20042;-73
2022/12/04 03:47:37;;;;;;;69.25;31.15;;;0.10;99.90;;;;;;4984656;28;20041;-73
2022/12/04 03:50:28;;;;;;;148.68;75.10;;;0.00;99.90;;;;;;4991216;28;20392;-73
2022/12/04 03:53:21;;;;;;;135.23;68.47;;;0.00;99.90;;;;;;4989532;28;20103;-73
2022/12/04 03:55:53;;;;;;;131.68;68.90;;;0.00;99.90;;;;;;4991607;28;20045;-73
2022/12/04 03:58:28;;;;;;;147.20;72.57;;;0.00;99.90;;;;;;4990030;28;20596;-73
2022/12/04 04:00:55;;;;;;;155.55;74.03;;;0.10;99.90;;;;;;4984996;28;20046;-73
2022/12/04 04:03:35;;;;;;;149.38;72.70;;;0.00;99.90;;;;;;5004810;28;20634;-73
2022/12/04 04:06:06;;;;;;;141.23;71.50;;;0.00;99.90;;;;;;4992512;28;20069;-73
2022/12/04 04:08:37;;;;;;;141.30;73.50;;;0.00;99.90;;;;;;4981197;28;20046;-73
2022/12/04 04:11:14;;;;;;;158.80;74.63;;;0.00;99.90;;;;;;4990523;28;20558;-73
2022/12/04 04:25:07;;;;;;;131.80;70.22;;;0.00;99.90;;;;;;4989870;28;20058;-73
2022/12/04 04:27:32;;;;;;;148.90;72.45;;;0.00;99.90;;;;;;5006737;28;20046;-73
2022/12/04 04:29:59;;;;;;;138.75;71.43;;;0.00;99.90;;;;;;4983485;28;20521;-73
2022/12/04 04:32:54;;;;;;;143.13;71.32;;;0.00;99.90;;;;;;4989955;28;20502;-73
2022/12/04 04:35:39;;;;;;;139.25;69.30;;;0.00;99.90;;;;;;5005667;28;20180;-73
2022/12/04 04:38:09;;;;;;;149.80;71.93;;;0.00;99.90;;;;;;5005776;28;20095;-72
2022/12/04 04:40:53;;;;;;;147.25;73.22;;;0.00;99.90;;;;;;4985288;28;20481;-73
2022/12/04 04:43:22;;;;;;;137.52;69.38;;;0.00;99.90;;;;;;4990071;28;20061;-73
2022/12/04 04:45:52;;;;;;;152.35;73.18;;;0.00;99.90;;;;;;4989045;28;20100;-72
2022/12/04 04:48:27;;;;;;;143.77;70.90;;;0.00;99.90;;;;;;4989826;28;20870;-72
2022/12/04 04:50:54;;;;;;;141.85;72.03;;;0.00;99.90;;;;;;5006668;28;20050;-71
2022/12/04 04:53:28;;;;;;;143.50;69.53;;;0.00;99.90;;;;;;5005045;28;20038;-72
2022/12/04 04:55:54;;;;;;;143.32;69.53;;;0.00;99.90;;;;;;4988181;28;20050;-71
2022/12/04 04:58:20;;;;;;;46.53;22.70;;;0.00;99.90;;;;;;5006221;28;20045;-71
2022/12/04 05:00:59;;;;;;;154.10;70.93;;;0.00;99.90;;;;;;4988527;28;20081;-71
2022/12/04 05:03:26;;;;;;;152.30;70.10;;;0.00;99.90;;;;;;4985447;28;20054;-72
2022/12/04 05:05:52;;;;;;;142.68;69.95;;;0.00;99.90;;;;;;4983370;28;20065;-72
2022/12/04 05:08:17;;;;;;;139.40;69.22;;;0.00;99.90;;;;;;4985011;28;20046;-72
2022/12/04 05:10:43;;;;;;;33.60;17.95;;;0.00;99.90;;;;;;4984512;28;20077;-73
2022/12/04 05:13:11;;;;;;;40.35;19.38;;;0.00;99.90;;;;;;4966462;28;20700;-72
2022/12/04 05:15:37;;;;;;;62.22;21.70;;;0.00;99.90;;;;;;4978936;28;20054;-72
2022/12/04 05:18:13;;;;;;;147.25;68.93;;;-0.10;99.90;;;;;;4986082;28;20054;-72
2022/12/04 05:20:41;;;;;;;143.00;67.97;;;0.00;99.90;;;;;;4985254;28;20394;-71
2022/12/04 05:23:17;;;;;;;135.68;67.65;;;0.00;99.90;;;;;;5000984;28;20064;-71
2022/12/04 05:25:43;;;;;;;142.48;67.97;;;0.00;99.90;;;;;;4980906;28;20050;-71
2022/12/04 05:28:09;;;;;;;136.82;66.07;;;0.00;99.90;;;;;;4985131;28;20046;-71
2022/12/04 05:30:35;;;;;;;127.97;65.63;;;0.00;99.90;;;;;;4985373;28;20046;-72
2022/12/04 05:33:00;;;;;;;23.25;12.20;;;0.00;99.90;;;;;;4986203;28;20065;-71
2022/12/04 05:35:26;;;;;;;139.25;66.18;;;0.00;99.90;;;;;;4989217;28;20038;-71
2022/12/04 05:37:53;;;;;;;130.30;66.57;;;0.00;99.90;;;;;;4991307;28;20057;-71
2022/12/04 05:40:19;;;;;;;38.30;16.50;;;0.00;99.90;;;;;;4989969;28;20050;-71
2022/12/04 05:42:45;;;;;;;133.18;66.68;;;0.00;99.90;;;;;;5008131;28;20045;-72
2022/12/04 05:45:11;;;;;;;138.40;67.28;;;0.00;99.90;;;;;;4991828;28;20496;-72
2022/12/04 05:47:42;;;;;;;135.02;66.65;;;0.00;99.90;;;;;;4988314;28;20058;-71
2022/12/04 05:50:09;;;;;;;40.58;15.10;;;0.10;99.90;;;;;;4982858;28;20046;-71
2022/12/04 05:52:35;;;;;;;129.82;65.20;;;0.00;99.90;;;;;;4970961;28;20042;-71
2022/12/04 05:55:01;;;;;;;133.80;64.70;;;0.00;99.90;;;;;;4987971;28;20137;-71
2022/12/04 05:57:27;;;;;;;131.50;65.80;;;0.10;99.90;;;;;;4989492;28;20081;-72
2022/12/04 05:59:53;;;;;;;142.70;65.47;;;0.10;99.90;;;;;;4984638;28;20050;-71
2022/12/04 06:02:19;;;;;;;125.05;65.93;;;0.10;99.90;;;;;;4987999;28;20046;-71
2022/12/04 06:04:45;;;;;;;128.15;65.72;;;0.10;99.90;;;;;;4987297;28;20415;-71
2022/12/04 06:07:11;;;;;;;135.77;70.13;;;0.10;99.90;;;;;;4989653;28;20050;-71
2022/12/04 06:09:37;;;;;;;129.57;67.80;;;0.10;99.90;;;;;;4987979;28;20720;-71
2022/12/04 06:12:05;;;;;;;137.75;66.43;;;0.10;99.90;;;;;;4988160;28;20423;-72
2022/12/04 06:14:31;;;;;;;132.85;66.22;;;0.10;99.90;;;;;;4989438;28;20082;-73
2022/12/04 06:16:57;;;;;;;138.60;67.78;;;0.10;99.90;;;;;;4985594;28;20051;-72
2022/12/04 06:19:23;;;;;;;147.15;71.63;;;0.10;99.90;;;;;;4987079;28;20522;-71
2022/12/04 06:21:51;;;;;;;139.93;68.18;;;0.00;99.90;;;;;;4990654;28;20096;-71
2022/12/04 06:24:19;;;;;;;141.60;72.03;;;0.00;99.90;;;;;;4988697;28;20054;-71
2022/12/04 06:26:45;;;;;;;124.60;69.10;;;0.00;99.90;;;;;;4990104;28;20065;-71
2022/12/04 06:29:12;;;;;;;34.33;18.33;;;0.00;99.90;;;;;;4989601;28;20073;-72
2022/12/04 06:31:38;;;;;;;148.63;67.30;;;0.00;99.90;;;;;;4988479;28;20042;-72
2022/12/04 06:34:05;;;;;;;144.05;71.07;;;0.00;99.90;;;;;;4987599;28;20057;-72
2022/12/04 06:36:31;;;;;;;148.60;72.47;;;0.00;99.90;;;;;;4986695;28;20046;-71
2022/12/04 06:38:57;;;;;;;144.48;69.82;;;0.00;99.90;;;;;;4990349;28;20595;-71
2022/12/04 06:41:24;;;;;;;141.27;68.80;;;0.00;99.90;;;;;;4986692;28;20042;-72
2022/12/04 06:43:51;;;;;;;135.32;71.38;;;0.00;99.90;;;;;;4983626;28;20121;-72
2022/12/04 06:46:20;;;;;;;139.23;68.78;;;0.00;99.90;;;;;;4967765;28;20046;-72
2022/12/04 06:48:46;;;;;;;146.70;69.22;;;0.00;99.90;;;;;;4982673;28;20043;-71
2022/12/04 06:51:21;;;;;;;144.27;70.85;;;0.00;99.90;;;;;;4987852;28;20050;-72
2022/12/04 06:53:47;;;;;;;139.75;69.68;;;0.00;99.90;;;;;;4985752;28;20049;-72
2022/12/04 06:56:16;;;;;;;151.18;70.75;;;0.00;99.90;;;;;;4988328;28;20412;-71
2022/12/04 06:58:47;;;;;;;150.02;72.85;;;0.00;99.90;;;;;;4989166;28;20112;-72
2022/12/04 07:01:15;;;;;;;151.90;72.60;;;0.00;99.90;;;;;;4987709;28;20046;-72
2022/12/04 07:03:41;;;;;;;147.10;71.60;;;0.00;99.90;;;;;;4988285;28;20103;-71
2022/12/04 07:06:10;;;;;;;68.47;21.38;;;0.00;99.90;;;;;;4988298;28;20053;-72
2022/12/04 07:08:35;;;;;;;157.43;75.15;;;0.00;99.90;;;;;;4985664;28;20042;-73
2022/12/04 07:11:01;;;;;;;155.38;71.75;;;0.00;99.90;;;;;;4980964;28;20046;-73
2022/12/04 07:13:27;;;;;;;148.52;72.03;;;0.00;99.90;;;;;;4985948;28;20038;-72
2022/12/04 07:15:53;;;;;;;165.93;75.38;;;0.00;99.90;;;;;;4985053;28;20532;-72
2022/12/04 07:18:18;;;;;;;160.32;75.10;;;0.00;99.90;;;;;;4989402;28;20161;-72
2022/12/04 07:20:44;;;;;;;63.58;25.10;;;0.00;99.90;;;;;;4988171;28;20092;-72
2022/12/04 07:23:11;;;;;;;52.33;24.65;;;0.00;99.90;;;;;;4987886;28;20038;-73
2022/12/04 07:25:40;;;;;;;148.27;72.47;;;0.00;99.90;;;;;;4988726;28;20046;-72
2022/12/04 07:28:06;;;;;;;160.68;74.70;;;0.00;99.90;;;;;;4986746;28;20916;-72
2022/12/04 07:30:31;;;;;;;150.13;75.32;;;0.00;99.90;;;;;;4987513;28;20050;-73
2022/12/04 07:32:57;;;;;;;151.85;73.18;;;0.00;99.90;;;;;;4983211;28;20050;-73
2022/12/04 07:35:23;;;;;;;160.18;76.60;;;0.00;99.90;;;;;;4987941;28;20507;-72
2022/12/04 07:37:48;;;;;;;154.25;76.22;;;0.00;99.90;;;;;;4987785;28;20117;-72
2022/12/04 07:40:15;;;;;;;167.65;78.78;;;0.00;99.90;;;;;;4989980;28;20042;-73
2022/12/04 07:42:41;;;;;;;152.93;76.30;;;0.00;99.90;;;;;;4988513;28;20371;-72
2022/12/04 07:45:07;;;;;;;161.30;77.15;;;0.10;99.90;;;;;;4988219;28;20046;-72
2022/12/04 07:47:34;;;;;;;163.65;76.03;;;0.00;99.90;;;;;;4982335;28;20073;-72
2022/12/04 07:50:00;;;;;;;156.20;74.85;;;0.10;99.90;;;;;;4987150;28;20507;-72
2022/12/04 07:52:26;;;;;;;159.57;73.43;;;0.10;99.90;;;;;;4987215;28;20069;-72
2022/12/04 07:54:51;;;;;;;165.32;73.93;;;0.10;99.90;;;;;;4991375;28;20396;-72
2022/12/04 07:57:18;;;;;;;155.05;76.43;;;0.00;99.90;;;;;;4985518;28;20046;-71
2022/12/04 07:59:44;;;;;;;166.80;82.32;;;0.10;99.90;;;;;;4988218;28;20499;-71
2022/12/04 08:02:11;;;;;;;165.90;80.32;;;0.10;99.90;;;;;;4990011;28;20054;-72
2022/12/04 08:04:37;;;;;;;164.53;72.47;;;0.10;99.90;;;;;;4987845;28;20062;-71
2022/12/04 08:07:04;;;;;;;171.43;78.82;;;0.10;99.90;;;;;;5000446;28;20065;-71
2022/12/04 08:09:31;;;;;;;157.25;75.90;;;0.10;99.90;;;;;;4984150;28;20470;-72
2022/12/04 08:11:57;;;;;;;160.32;74.40;;;0.10;99.90;;;;;;4972447;28;20060;-71
2022/12/04 08:14:33;;;;;;;163.52;77.05;;;0.20;99.90;;;;;;4983765;28;20050;-71
2022/12/04 08:16:59;;;;;;;157.23;76.55;;;0.10;99.90;;;;;;4988213;28;20085;-71
2022/12/04 08:19:25;;;;;;;158.32;74.85;;;0.20;99.90;;;;;;4971447;28;20054;-71
2022/12/04 08:21:54;;;;;;;168.10;78.10;;;0.20;99.90;;;;;;4985308;28;20053;-70
2022/12/04 08:24:20;;;;;;;;;;;0.20;99.90;;;;;;4983502;28;20126;-71
2022/12/04 08:26:46;;;;;;;158.48;72.55;;;0.20;99.90;;;;;;4983517;28;20016;-71
2022/12/04 08:29:12;;;;;;;162.18;73.70;;;0.20;99.90;;;;;;4971410;28;20064;-71
2022/12/04 08:31:38;;;;;;;158.18;75.55;;;0.20;99.90;;;;;;4987482;28;20058;-70
2022/12/04 08:34:06;;;;;;;146.52;72.53;;;0.20;99.90;;;;;;4985985;28;20064;-70
2022/12/04 08:36:33;;;;;;;149.88;75.05;;;0.30;99.90;;;;;;4987672;28;20046;-70
2022/12/04 08:38:59;;;;;;;148.77;70.70;;;0.30;99.90;;;;;;4986327;28;20071;-71
2022/12/04 08:41:25;;;;;;;160.35;76.03;;;0.30;99.90;;;;;;4985118;28;20403;-71
2022/12/04 08:43:56;;;;;;;148.88;74.45;;;0.30;99.90;;;;;;4984549;28;20073;-72
2022/12/04 08:46:23;;;;;;;155.80;76.22;;;0.40;99.90;;;;;;4980245;28;20042;-72
2022/12/04 08:48:49;;;;;;;150.98;72.93;;;0.40;99.90;;;;;;4987941;28;20138;-71
2022/12/04 08:51:22;;;;;;;153.10;73.38;;;0.40;99.90;;;;;;4984749;28;20125;-72
2022/12/04 08:53:51;;;;;;;141.63;70.15;;;0.40;99.90;;;;;;4997870;28;20054;-72
2022/12/04 08:56:17;;;;;;;140.80;69.90;;;0.40;99.90;;;;;;4986377;28;20049;-71
2022/12/04 08:58:42;;;;;;;147.13;71.68;;;0.40;99.90;;;;;;4986366;28;20054;-72
2022/12/04 09:01:13;;;;;;;52.10;16.13;;;0.50;99.90;;;;;;4985449;28;20050;-72
2022/12/04 09:03:39;;;;;;;50.85;17.48;;;0.50;99.90;;;;;;4986795;28;20062;-72
2022/12/04 09:06:06;;;;;;;147.73;72.35;;;0.40;99.90;;;;;;4987846;28;20061;-72
2022/12/04 09:08:33;;;;;;;154.98;72.60;;;0.50;99.90;;;;;;4983358;28;20047;-71
2022/12/04 09:11:10;;;;;;;150.80;72.72;;;0.50;99.90;;;;;;4977185;28;20051;-71
2022/12/04 09:13:37;;;;;;;143.60;73.33;;;0.50;99.90;;;;;;4980830;28;20051;-71
2022/12/04 09:16:05;;;;;;;150.93;71.55;;;0.50;99.90;;;;;;4984861;28;20302;-71
2022/12/04 09:18:32;;;;;;;146.02;72.82;;;0.60;99.90;;;;;;4997742;28;20042;-70
2022/12/04 09:20:59;;;;;;;151.32;72.35;;;0.60;99.90;;;;;;4986825;28;20407;-70
2022/12/04 09:23:26;;;;;;;141.10;73.38;;;0.60;99.90;;;;;;4977415;28;20107;-71
2022/12/04 09:25:51;;;;;;;134.93;68.53;;;0.60;99.90;;;;;;4962315;28;20047;-70
2022/12/04 09:28:18;;;;;;;144.02;66.88;;;0.60;99.90;;;;;;4985080;28;20050;-70
2022/12/04 09:30:43;;;;;;;144.98;68.22;;;0.70;99.90;;;;;;4985040;28;20074;-70
2022/12/04 09:33:09;;;;;;;129.13;68.13;;;0.70;99.90;;;;;;4985670;28;20125;-70
2022/12/04 09:35:36;;;;;;;144.98;68.10;;;0.70;99.90;;;;;;4985034;28;20798;-70
2022/12/04 09:38:02;;;;;;;131.13;70.10;;;0.70;99.90;;;;;;5002833;28;20530;-70
2022/12/04 09:40:36;;;;;;;129.55;68.22;;;0.70;99.90;;;;;;4986664;28;20078;-71
2022/12/04 09:43:06;;;;;;;141.95;64.90;;;0.70;99.90;;;;;;5003453;28;20093;-70
2022/12/04 09:45:44;;;;;;;130.45;63.80;;;0.70;99.90;;;;;;4986316;28;20054;-70
2022/12/04 09:48:11;;;;;;;126.93;64.47;;;0.80;99.90;;;;;;4986029;28;20851;-70
2022/12/04 09:50:42;;;;;;;109.63;60.35;;;0.80;99.90;;;;;;4978899;28;20063;-70
2022/12/04 09:53:40;;;;;;;121.72;59.80;;;0.80;99.90;;;;;;4982150;28;20451;-71
2022/12/04 09:56:11;;;;;;;120.88;61.67;;;0.90;99.90;;;;;;4985416;28;20047;-71
2022/12/04 09:58:48;;;;;;;119.05;61.03;;;0.90;99.90;;;;;;4978332;28;20078;-72
2022/12/04 10:01:28;;;;;;;134.07;63.20;;;0.90;99.90;;;;;;4984980;28;20054;-72
2022/12/04 10:03:55;;;;;;;125.10;62.40;;;1.00;99.90;;;;;;4981949;28;20066;-73
2022/12/04 10:06:27;;;;;;;116.25;61.75;;;1.00;99.90;;;;;;4984563;28;20412;-74
2022/12/04 10:09:02;;;;;;;53.15;15.05;;;1.00;99.90;;;;;;4980356;28;20077;-74
2022/12/04 10:11:55;;;;;;;117.53;58.70;;;1.00;99.90;;;;;;4977203;28;20046;-74
2022/12/04 10:14:52;;;;;;;118.90;59.47;;;1.00;99.90;;;;;;4987956;28;20054;-75
2022/12/04 10:17:43;;;;;;;117.88;59.78;;;1.10;99.90;;;;;;4981010;28;20054;-74
2022/12/04 10:20:26;;;;;;;116.50;56.20;;;1.20;99.90;;;;;;4983758;28;20408;-74
2022/12/04 10:23:20;;;;;;;109.32;56.10;;;1.20;99.90;;;;;;4983597;28;20057;-74
2022/12/04 10:25:47;;;;;;;32.13;11.88;;;1.20;99.90;;;;;;4986776;28;20042;-74
2022/12/04 10:28:35;;;;;;;111.93;56.43;;;1.20;99.90;;;;;;4987944;28;20549;-74
2022/12/04 10:31:03;;;;;;;100.05;54.80;;;1.30;99.90;;;;;;4986050;28;20372;-75
2022/12/04 10:33:53;;;;;;;109.88;56.17;;;1.30;99.90;;;;;;4993735;28;20042;-74
2022/12/04 10:36:24;;;;;;;109.43;53.25;;;1.40;99.90;;;;;;4987261;28;20057;-74
2022/12/04 10:39:20;;;;;;;106.65;53.90;;;1.40;99.90;;;;;;4986148;28;20510;-75
2022/12/04 10:42:31;;;;;;;89.43;48.67;;;1.50;99.90;;;;;;4981797;28;20069;-75
2022/12/04 10:44:57;;;;;;;96.32;50.03;;;1.60;99.90;;;;;;4926666;28;20059;-76
2022/12/04 10:47:23;;;;;;;103.32;52.60;;;1.60;99.90;;;;;;4984037;28;20058;-76
2022/12/04 10:49:55;;;;;;;97.13;50.63;;;1.60;99.90;;;;;;4989991;28;20038;-76
2022/12/04 10:52:21;;;;;;;86.03;47.08;;;1.70;99.90;;;;;;4992595;28;20046;-76
2022/12/04 10:55:00;;;;;;;86.78;45.08;;;1.70;99.90;;;;;;4987064;28;20105;-76
2022/12/04 10:57:44;;;;;;;77.43;44.80;;;1.70;99.90;;;;;;5001976;28;20065;-76
2022/12/04 11:00:31;;;;;;;80.43;44.08;;;1.70;99.90;;;;;;4986013;28;20042;-76
2022/12/04 11:03:00;;;;;;;84.32;44.10;;;1.80;99.90;;;;;;5006097;28;20046;-77
2022/12/04 11:05:30;;;;;;;79.55;41.92;;;1.80;99.90;;;;;;4975842;28;20503;-76
2022/12/04 11:07:58;;;;;;;82.57;47.60;;;1.80;99.90;;;;;;4991579;28;20381;-77
2022/12/04 11:10:42;;;;;;;82.07;43.63;;;1.80;99.90;;;;;;4991973;28;20072;-77
2022/12/04 11:13:11;;;;;;;86.90;43.45;;;1.80;99.90;;;;;;4991578;28;20069;-78
2022/12/04 11:15:42;;;;;;;;;;;1.80;99.90;;;;;;4991064;28;20052;-77
2022/12/04 11:18:22;;;;;;;74.78;41.10;;;1.80;99.90;;;;;;4991473;28;19928;-77
2022/12/04 11:21:06;;;;;;;85.30;44.97;;;1.80;99.90;;;;;;4991146;28;20129;-77
2022/12/04 11:23:47;;;;;;;78.55;42.67;;;1.80;99.90;;;;;;4991986;28;20403;-77
2022/12/04 11:26:14;;;;;;;87.47;45.00;;;1.80;99.90;;;;;;5003889;28;20047;-78
2022/12/04 11:28:47;;;;;;;77.07;41.47;;;1.80;99.90;;;;;;4992435;28;20049;-77
2022/12/04 11:31:18;;;;;;;85.13;45.45;;;1.80;99.90;;;;;;4991263;28;20077;-76
2022/12/04 11:33:48;;;;;;;82.43;44.38;;;1.80;99.90;;;;;;4990579;28;20172;-78
2022/12/04 11:36:44;;;;;;;83.07;44.60;;;1.80;99.90;;;;;;4987738;28;20054;-77
2022/12/04 11:39:10;;;;;;;75.88;42.17;;;1.80;99.90;;;;;;4987517;28;20060;-76
2022/12/04 11:41:36;;;;;;;76.38;41.45;;;1.80;99.90;;;;;;4996242;28;20061;-75
2022/12/04 11:44:05;;;;;;;81.60;42.22;;;1.80;99.90;;;;;;5017822;28;20044;-76
2022/12/04 11:46:33;;;;;;;75.25;39.63;;;1.80;99.90;;;;;;4998470;28;20072;-77
2022/12/04 11:48:59;;;;;;;82.93;42.58;;;1.80;99.90;;;;;;4990463;28;20085;-76
2022/12/04 11:52:06;;;;;;;77.47;42.33;;;1.90;99.90;;;;;;4989380;28;20037;-77
2022/12/04 11:54:51;;;;;;;85.18;43.88;;;1.80;99.90;;;;;;4986096;28;20033;-76
2022/12/04 11:57:38;;;;;;;73.22;41.78;;;1.90;99.90;;;;;;5002853;28;20065;-77
2022/12/04 12:00:08;;;;;;;81.43;41.50;;;1.90;99.90;;;;;;5009879;28;20045;-76
2022/12/04 12:02:43;;;;;;;69.72;40.35;;;1.90;99.90;;;;;;4998540;28;20049;-76
2022/12/04 12:05:53;;;;;;;77.00;39.72;;;1.90;99.90;;;;;;4995470;28;20046;-76
2022/12/04 12:08:38;;;;;;;91.68;40.13;;;1.90;99.90;;;;;;5005435;28;20044;-76
2022/12/04 12:11:09;;;;;;;71.93;40.28;;;1.90;99.90;;;;;;4987425;28;20042;-76
2022/12/04 12:14:15;;;;;;;70.50;41.10;;;2.00;99.90;;;;;;4991165;28;20081;-76
2022/12/04 12:17:08;;;;;;;72.65;40.33;;;2.00;99.90;;;;;;5005094;28;20050;-76
2022/12/04 12:19:45;;;;;;;31.58;15.73;;;2.00;99.90;;;;;;4989503;28;20046;-76
2022/12/04 12:22:47;;;;;;;78.60;40.58;;;2.00;99.90;;;;;;4990434;28;20093;-76
2022/12/04 12:25:26;;;;;;;70.00;38.92;;;2.00;99.90;;;;;;4991115;28;20049;-76
2022/12/04 12:28:12;;;;;;;;;;;2.00;99.90;;;;;;4990826;28;20064;-76
2022/12/04 12:31:13;;;;;;;77.18;39.20;;;2.00;99.90;;;;;;4989728;28;19921;-76
2022/12/04 12:33:48;;;;;;;77.93;40.13;;;2.00;99.90;;;;;;4990574;28;20046;-76
2022/12/04 12:36:14;;;;;;;29.08;14.57;;;2.00;99.90;;;;;;4990611;28;20108;-76
2022/12/04 12:38:49;;;;;;;75.90;38.40;;;2.00;99.90;;;;;;4987068;28;20050;-75
2022/12/04 12:41:24;;;;;;;63.88;35.85;;;2.10;99.90;;;;;;4980954;28;20446;-78
2022/12/04 12:44:00;;;;;;;37.75;18.52;;;2.10;99.90;;;;;;4989134;28;20046;-78
2022/12/04 12:46:57;;;;;;;66.93;36.60;;;2.10;99.90;;;;;;4986766;28;20454;-77
2022/12/04 12:49:53;;;;;;;70.57;39.53;;;2.10;99.90;;;;;;4989200;28;20053;-76
2022/12/04 12:52:40;;;;;;;69.28;36.08;;;2.10;99.90;;;;;;4981118;28;20049;-75
2022/12/04 12:55:28;;;;;;;71.70;40.93;;;2.20;99.90;;;;;;4963486;28;20066;-75
2022/12/04 12:58:08;;;;;;;63.97;35.58;;;2.20;99.90;;;;;;5011946;28;20095;-76
2022/12/04 13:00:42;;;;;;;64.72;36.58;;;2.20;99.90;;;;;;4984940;28;20049;-76
2022/12/04 13:03:39;;;;;;;67.35;37.47;;;2.20;99.90;;;;;;4987290;28;20104;-76
2022/12/04 13:06:10;;;;;;;69.95;38.60;;;2.20;99.90;;;;;;4986816;28;20430;-78
2022/12/04 13:09:15;;;;;;;70.65;38.25;;;2.20;99.90;;;;;;5009454;28;20046;-78